Time;durP1;ratioP1;P1;durP2;ratioP2;P2;SDS_P1;SDS_P2;PMS_P1;PMS_P2;Temp;Humidity;BMP_temperature;BMP_pressure;BME280_temperature;BME280_humidity;BME280_pressure;Samples;Min_cycle;Max_cycle;Signal;HPM_P1;HPM_P2
2021/08/27 00:00:25;;;;;;;10.93;3.38;;;;;;;24.97;40.53;100624.88;5013043;28;20050;-76
2021/08/27 00:02:52;;;;;;;11.93;3.42;;;;;;;24.98;40.31;100623.94;5012436;28;20503;-75
2021/08/27 00:05:19;;;;;;;6.68;3.45;;;;;;;24.91;40.07;100627.00;5012918;28;20038;-75
2021/08/27 00:07:47;;;;;;;7.93;3.67;;;;;;;24.92;40.21;100623.34;5012165;28;20407;-74
2021/08/27 00:10:14;;;;;;;11.73;3.47;;;;;;;24.93;39.80;100620.59;5012779;28;20049;-75
2021/08/27 00:12:41;;;;;;;7.55;3.67;;;;;;;24.93;39.79;100626.00;5010747;28;20057;-72
2021/08/27 00:15:11;;;;;;;11.85;3.10;;;;;;;24.92;40.22;100626.06;5012506;28;20415;-75
2021/08/27 00:17:40;;;;;;;7.20;3.22;;;;;;;24.72;40.41;100626.03;5011474;28;20042;-75
2021/08/27 00:20:09;;;;;;;8.02;3.20;;;;;;;24.63;40.57;100622.81;5012401;28;20046;-75
2021/08/27 00:22:36;;;;;;;8.98;3.17;;;;;;;24.67;40.41;100620.84;5010866;28;20046;-76
2021/08/27 00:25:05;;;;;;;7.32;2.85;;;;;;;24.62;39.94;100620.16;5011153;28;20495;-75
2021/08/27 00:27:33;;;;;;;9.30;2.97;;;;;;;24.54;39.38;100616.94;5011990;28;20042;-74
2021/08/27 00:30:01;;;;;;;6.80;3.33;;;;;;;24.48;39.22;100623.47;5011673;28;20450;-75
2021/08/27 00:32:30;;;;;;;5.53;2.90;;;;;;;24.48;38.78;100630.72;5012105;28;20045;-75
2021/08/27 00:34:57;;;;;;;7.20;2.85;;;;;;;24.45;38.71;100629.03;5012177;28;20037;-75
2021/08/27 00:37:24;;;;;;;10.07;3.08;;;;;;;24.42;38.49;100622.88;5010755;28;20041;-75
2021/08/27 00:39:52;;;;;;;10.75;2.70;;;;;;;24.39;38.12;100620.31;5012014;28;20049;-75
2021/08/27 00:42:20;;;;;;;9.10;2.97;;;;;;;24.39;38.01;100634.69;5011547;28;20057;-76
2021/08/27 00:44:47;;;;;;;6.75;2.58;;;;;;;24.41;38.13;100630.13;5011364;28;20052;-74
2021/08/27 00:47:15;;;;;;;7.55;2.75;;;;;;;24.39;38.09;100628.41;5012084;28;20476;-75
2021/08/27 00:49:44;;;;;;;7.53;2.80;;;;;;;24.41;38.25;100623.84;5011703;28;20044;-74
2021/08/27 00:52:12;;;;;;;7.68;2.70;;;;;;;24.46;38.07;100627.19;5004641;28;20046;-71
2021/08/27 00:54:44;;;;;;;9.68;2.85;;;;;;;24.43;37.85;100619.22;5012177;28;20042;-76
2021/08/27 00:57:12;;;;;;;13.75;4.32;;;;;;;24.39;37.71;100623.91;5030457;28;20037;-76
2021/08/27 00:59:39;;;;;;;8.25;2.63;;;;;;;24.38;37.68;100624.84;5030915;28;20499;-76
2021/08/27 01:02:07;;;;;;;8.07;2.72;;;;;;;24.35;37.82;100619.56;5031642;28;20407;-75
2021/08/27 01:04:36;;;;;;;8.85;2.72;;;;;;;24.32;38.05;100618.81;5024813;28;20550;-76
2021/08/27 01:07:10;;;;;;;10.73;2.88;;;;;;;24.32;38.28;100625.09;5028626;28;20034;-75
2021/08/27 01:09:45;;;;;;;8.23;2.70;;;;;;;24.34;38.12;100619.66;5027816;28;20044;-75
2021/08/27 01:12:17;;;;;;;7.53;2.85;;;;;;;24.33;38.30;100620.59;5026455;28;20061;-71
2021/08/27 01:14:52;;;;;;;6.13;2.80;;;;;;;24.34;38.08;100620.53;5030696;28;20065;-75
2021/08/27 01:17:22;;;;;;;7.85;2.88;;;;;;;24.33;38.20;100613.38;5029696;28;20565;-75
2021/08/27 01:20:47;;;;;;;11.50;3.35;;;;;;;24.31;37.92;100615.25;5030568;28;20041;-76
2021/08/27 01:23:24;;;;;;;8.07;2.88;;;;;;;24.28;37.91;100623.50;5022523;28;20057;-74
2021/08/27 01:25:58;;;;;;;7.55;2.70;;;;;;;24.28;37.88;100620.78;5030069;28;20033;-75
2021/08/27 01:28:29;;;;;;;7.30;2.90;;;;;;;24.26;38.09;100622.66;5030714;28;20049;-75
2021/08/27 01:31:24;;;;;;;4.18;2.42;;;;;;;24.27;37.74;100620.84;5031120;28;20038;-75
2021/08/27 01:34:24;;;;;;;6.60;2.67;;;;;;;24.26;37.84;100632.59;5027610;28;20095;-76
2021/08/27 01:36:53;;;;;;;8.75;2.88;;;;;;;24.16;38.09;100626.66;5027415;28;20049;-76
2021/08/27 01:39:25;;;;;;;6.32;2.50;;;;;;;24.07;38.08;100629.75;5030575;28;20458;-76
2021/08/27 01:41:56;;;;;;;8.68;3.03;;;;;;;24.04;38.20;100635.28;5030551;28;20037;-76
2021/08/27 01:44:26;;;;;;;5.88;2.70;;;;;;;24.03;38.03;100629.00;5030602;28;20509;-75
2021/08/27 01:46:58;;;;;;;7.85;2.83;;;;;;;24.06;37.92;100633.41;5030085;28;20159;-76
2021/08/27 01:49:31;;;;;;;12.63;3.58;;;;;;;24.09;37.82;100638.69;5030379;28;20042;-76
2021/08/27 01:51:59;;;;;;;7.53;2.85;;;;;;;24.09;37.71;100627.88;5030719;28;20529;-76
2021/08/27 01:54:29;;;;;;;9.00;2.28;;;;;;;24.07;37.61;100630.63;5030254;28;20484;-75
2021/08/27 01:56:58;;;;;;;6.90;2.90;;;;;;;24.07;37.65;100629.75;5030034;28;20433;-76
2021/08/27 01:59:29;;;;;;;8.57;2.55;;;;;;;24.03;37.73;100630.81;5029912;28;20038;-75
2021/08/27 02:01:56;;;;;;;8.27;2.50;;;;;;;23.96;37.68;100619.41;5030377;28;20041;-76
2021/08/27 02:04:28;;;;;;;10.13;3.17;;;;;;;23.85;37.84;100621.69;5029538;28;20128;-76
2021/08/27 02:06:58;;;;;;;7.97;2.92;;;;;;;23.83;38.00;100629.81;5027699;28;20479;-76
2021/08/27 02:09:26;;;;;;;9.43;3.05;;;;;;;23.81;38.04;100630.84;5028065;28;20045;-75
2021/08/27 02:11:54;;;;;;;11.18;2.70;;;;;;;23.80;38.08;100621.88;5030396;28;20491;-75
2021/08/27 02:14:21;;;;;;;9.93;2.65;;;;;;;23.84;37.73;100631.56;5028964;28;20048;-77
2021/08/27 02:16:49;;;;;;;6.53;2.42;;;;;;;23.82;37.80;100625.41;5029242;28;20037;-76
2021/08/27 02:19:16;;;;;;;14.55;2.97;;;;;;;23.86;37.57;100622.56;5029612;28;20052;-76
2021/08/27 02:21:48;;;;;;;7.93;2.50;;;;;;;23.87;37.63;100625.19;5029859;28;20045;-75
2021/08/27 02:24:19;;;;;;;9.52;2.47;;;;;;;23.84;37.62;100618.09;5028377;28;20103;-76
2021/08/27 02:26:48;;;;;;;7.20;2.55;;;;;;;23.86;37.61;100623.44;5030671;28;20380;-76
2021/08/27 02:29:18;;;;;;;7.47;2.80;;;;;;;23.80;37.83;100623.69;5029451;28;20045;-76
2021/08/27 02:31:50;;;;;;;11.45;3.08;;;;;;;23.77;37.86;100624.69;5029834;28;20038;-76
2021/08/27 02:34:22;;;;;;;9.13;2.75;;;;;;;23.77;37.75;100621.97;5028654;28;20056;-76
2021/08/27 02:36:56;;;;;;;6.88;2.70;;;;;;;23.73;37.71;100623.06;5028280;28;20041;-76
2021/08/27 02:39:25;;;;;;;9.18;2.75;;;;;;;23.75;38.01;100623.88;5029868;28;20037;-77
2021/08/27 02:41:55;;;;;;;10.95;2.47;;;;;;;23.73;38.06;100625.75;5028231;28;20041;-76
2021/08/27 02:44:22;;;;;;;10.25;2.95;;;;;;;23.65;38.04;100625.19;5029662;28;20404;-73
2021/08/27 02:46:49;;;;;;;5.13;2.10;;;;;;;23.64;38.04;100627.94;5030399;28;20403;-76
2021/08/27 02:49:17;;;;;;;7.60;2.72;;;;;;;23.64;38.07;100618.03;5029579;28;20499;-76
2021/08/27 02:51:50;;;;;;;11.15;2.72;;;;;;;23.65;38.01;100611.72;5029068;28;20044;-74
2021/08/27 02:54:23;;;;;;;8.60;2.42;;;;;;;23.57;37.96;100616.53;5029649;28;20049;-76
2021/08/27 02:56:55;;;;;;;9.52;2.58;;;;;;;23.50;38.32;100620.41;5030140;28;20057;-76
2021/08/27 02:59:25;;;;;;;10.60;2.95;;;;;;;23.51;38.11;100614.06;5030624;28;20096;-76
2021/08/27 03:01:52;;;;;;;7.05;2.85;;;;;;;23.53;38.05;100614.91;5033026;28;20518;-75
2021/08/27 03:04:29;;;;;;;7.18;2.53;;;;;;;23.61;37.81;100620.88;5030091;28;20062;-75
2021/08/27 03:07:05;;;;;;;10.35;3.38;;;;;;;23.56;37.90;100622.88;5033462;28;20056;-76
2021/08/27 03:09:44;;;;;;;13.23;3.10;;;;;;;23.61;37.58;100622.69;5027143;28;20041;-77
2021/08/27 03:12:13;;;;;;;8.13;3.03;;;;;;;23.62;37.45;100625.31;5017005;28;20073;-76
2021/08/27 03:14:43;;;;;;;8.25;2.67;;;;;;;23.59;37.48;100622.75;5032357;28;20045;-76
2021/08/27 03:17:16;;;;;;;8.18;2.75;;;;;;;23.59;37.39;100625.44;5032062;28;20053;-77
2021/08/27 03:19:52;;;;;;;12.68;2.83;;;;;;;23.62;37.48;100624.44;5033092;28;20045;-76
2021/08/27 03:22:24;;;;;;;11.07;3.08;;;;;;;23.62;37.66;100630.72;5015984;28;20049;-76
2021/08/27 03:25:02;;;;;;;9.38;2.75;;;;;;;23.62;37.81;100633.41;5012810;28;20044;-75
2021/08/27 03:27:33;;;;;;;8.32;2.63;;;;;;;23.55;37.59;100639.97;5011043;28;20035;-76
2021/08/27 03:30:06;;;;;;;9.38;2.70;;;;;;;23.49;37.38;100633.97;5012642;28;20057;-76
2021/08/27 03:32:33;;;;;;;8.45;2.50;;;;;;;23.51;37.54;100630.25;5013057;28;20056;-76
2021/08/27 03:35:01;;;;;;;10.15;2.70;;;;;;;23.52;37.58;100640.09;5009835;28;20073;-76
2021/08/27 03:37:32;;;;;;;9.98;2.97;;;;;;;23.46;37.64;100637.59;5011076;28;20050;-76
2021/08/27 03:40:02;;;;;;;9.93;2.95;;;;;;;23.48;37.58;100627.69;4996352;28;20052;-76
2021/08/27 03:42:33;;;;;;;6.07;2.40;;;;;;;23.46;37.76;100629.53;5032575;28;20073;-76
2021/08/27 03:45:01;;;;;;;9.73;3.08;;;;;;;23.50;37.75;100638.41;5032134;28;20050;-76
2021/08/27 03:47:29;;;;;;;7.70;2.63;;;;;;;23.53;37.72;100640.97;5032286;28;20411;-76
2021/08/27 03:49:57;;;;;;;6.32;2.60;;;;;;;23.54;37.63;100642.72;5029030;28;20738;-76
2021/08/27 03:52:25;;;;;;;9.82;3.22;;;;;;;23.57;37.33;100643.47;5031700;28;20038;-76
2021/08/27 03:54:53;;;;;;;7.15;2.88;;;;;;;23.55;37.26;100649.88;5030661;28;20042;-76
2021/08/27 03:57:26;;;;;;;8.40;2.72;;;;;;;23.47;37.17;100646.56;5032453;28;20048;-76
2021/08/27 03:59:53;;;;;;;7.05;2.40;;;;;;;23.52;37.31;100655.38;5016740;28;20049;-76
2021/08/27 04:02:21;;;;;;;11.00;3.33;;;;;;;23.58;37.06;100647.94;5020743;28;20499;-76
2021/08/27 04:04:48;;;;;;;7.45;2.83;;;;;;;23.62;36.92;100644.19;5005637;28;20416;-74
2021/08/27 04:07:19;;;;;;;9.15;2.58;;;;;;;23.66;38.80;100644.94;5030403;28;20399;-75
2021/08/27 04:09:46;;;;;;;8.68;2.70;;;;;;;23.72;39.10;100640.19;5031573;28;20419;-75
2021/08/27 04:12:13;;;;;;;6.13;2.95;;;;;;;23.76;39.25;100638.25;5030675;28;20048;-75
2021/08/27 04:14:42;;;;;;;9.80;3.10;;;;;;;23.82;39.47;100638.88;5031247;28;20572;-76
2021/08/27 04:17:10;;;;;;;8.05;2.60;;;;;;;23.87;38.27;100633.28;5030971;28;20126;-76
2021/08/27 04:19:37;;;;;;;8.25;2.55;;;;;;;23.92;38.21;100638.47;5031765;28;20045;-75
2021/08/27 04:22:05;;;;;;;8.68;2.53;;;;;;;24.10;38.52;100633.19;5029802;28;20041;-76
2021/08/27 04:24:33;;;;;;;7.45;2.78;;;;;;;24.25;37.97;100638.91;5034267;28;20119;-76
2021/08/27 04:27:00;;;;;;;5.18;2.40;;;;;;;24.27;37.71;100637.91;5036743;28;20040;-76
2021/08/27 04:29:27;;;;;;;10.30;3.28;;;;;;;24.37;38.77;100639.25;5034290;28;20518;-76
2021/08/27 04:31:57;;;;;;;11.38;3.17;;;;;;;24.54;38.58;100650.22;5040356;28;20609;-75
2021/08/27 04:34:25;;;;;;;8.07;2.67;;;;;;;24.62;37.57;100648.03;5036750;28;20462;-76
2021/08/27 04:36:54;;;;;;;5.22;2.30;;;;;;;24.72;37.60;100651.22;5040227;28;20052;-75
2021/08/27 04:39:21;;;;;;;6.70;2.38;;;;;;;24.74;37.86;100645.75;5040300;28;20691;-75
2021/08/27 04:41:48;;;;;;;7.00;2.70;;;;;;;24.79;37.97;100649.13;5035485;28;20044;-75
2021/08/27 04:44:16;;;;;;;9.90;2.60;;;;;;;24.94;38.29;100649.31;5039503;28;20037;-76
2021/08/27 04:46:47;;;;;;;11.00;3.15;;;;;;;25.15;38.07;100647.47;5039752;28;20037;-75
2021/08/27 04:49:19;;;;;;;7.88;2.45;;;;;;;25.36;38.32;100654.59;5038864;28;20058;-75
2021/08/27 04:51:47;;;;;;;6.85;2.80;;;;;;;25.49;37.62;100662.09;5039269;28;20049;-75
2021/08/27 04:54:14;;;;;;;6.47;2.90;;;;;;;25.58;37.51;100669.81;5038804;28;20046;-75
2021/08/27 04:56:42;;;;;;;12.18;3.20;;;;;;;25.66;37.54;100663.09;5038988;28;20514;-76
2021/08/27 04:59:09;;;;;;;6.25;3.13;;;;;;;25.86;37.44;100659.44;5039637;28;20058;-76
2021/08/27 05:01:36;;;;;;;7.45;2.58;;;;;;;25.99;37.42;100651.59;5039418;28;20045;-76
2021/08/27 05:04:04;;;;;;;11.18;2.92;;;;;;;26.19;37.25;100648.72;5039856;28;20397;-75
2021/08/27 05:06:33;;;;;;;11.77;2.90;;;;;;;26.48;37.42;100658.97;5040014;28;20056;-76
2021/08/27 05:09:00;;;;;;;13.48;3.13;;;;;;;26.76;37.09;100650.28;5039867;28;20044;-76
2021/08/27 05:11:27;;;;;;;12.40;3.20;;;;;;;26.98;36.68;100653.63;5039472;28;20510;-76
2021/08/27 05:13:55;;;;;;;7.28;3.35;;;;;;;27.19;36.44;100658.84;5039997;28;20057;-76
2021/08/27 05:16:23;;;;;;;11.65;3.33;;;;;;;27.42;35.45;100657.59;5039494;28;20041;-76
2021/08/27 05:18:50;;;;;;;11.15;3.20;;;;;;;27.68;34.75;100660.63;5039339;28;20041;-77
2021/08/27 05:21:18;;;;;;;11.77;3.30;;;;;;;27.92;34.37;100662.88;5039377;28;20486;-77
2021/08/27 05:23:47;;;;;;;12.02;2.83;;;;;;;28.14;34.27;100672.44;5033591;28;20441;-75
2021/08/27 05:26:14;;;;;;;8.02;2.80;;;;;;;28.36;34.11;100665.72;5039722;28;20049;-75
2021/08/27 05:28:42;;;;;;;11.70;2.75;;;;;;;28.61;33.92;100676.88;5040567;28;20041;-77
2021/08/27 05:31:10;;;;;;;11.77;3.25;;;;;;;28.84;33.74;100678.22;5038747;28;20049;-77
2021/08/27 05:33:37;;;;;;;11.13;3.20;;;;;;;29.09;33.38;100672.13;5038660;28;20033;-77
2021/08/27 05:36:05;;;;;;;13.85;3.15;;;;;;;29.32;33.24;100675.16;5039268;28;20495;-77
2021/08/27 05:38:33;;;;;;;11.00;3.03;;;;;;;29.54;33.08;100682.84;5037650;28;20091;-77
2021/08/27 05:41:03;;;;;;;10.68;2.92;;;;;;;29.82;32.69;100672.88;5037770;28;20048;-77
2021/08/27 05:43:30;;;;;;;8.88;3.00;;;;;;;30.02;32.12;100673.34;5038951;28;20100;-77
2021/08/27 05:45:59;;;;;;;10.68;2.97;;;;;;;30.29;31.77;100683.38;5038770;28;20037;-77
2021/08/27 05:48:26;;;;;;;10.38;2.60;;;;;;;30.53;31.84;100680.84;5037686;28;20041;-77
2021/08/27 05:50:54;;;;;;;12.32;3.17;;;;;;;30.73;30.97;100680.34;5039119;28;20045;-78
2021/08/27 05:53:22;;;;;;;12.00;3.17;;;;;;;30.92;30.38;100679.94;5038056;28;20128;-78
2021/08/27 05:55:51;;;;;;;7.90;2.92;;;;;;;31.09;30.14;100683.25;5030755;28;20064;-76
2021/08/27 05:58:21;;;;;;;11.02;3.00;;;;;;;31.34;29.55;100690.56;5038128;28;20517;-77
2021/08/27 06:00:49;;;;;;;10.77;3.75;;;;;;;31.63;29.70;100686.63;5026629;28;20407;-76
2021/08/27 06:03:17;;;;;;;8.23;2.72;;;;;;;31.92;29.02;100691.78;5030264;28;20056;-75
2021/08/27 06:05:45;;;;;;;7.82;3.10;;;;;;;32.21;28.97;100695.09;5029840;28;20387;-76
2021/08/27 06:08:12;;;;;;;10.07;2.80;;;;;;;32.44;28.99;100689.63;5029746;28;20049;-76
2021/08/27 06:10:40;;;;;;;11.05;3.10;;;;;;;32.55;28.83;100686.06;5026924;28;20135;-75
2021/08/27 06:13:07;;;;;;;9.10;3.13;;;;;;;32.63;29.43;100683.59;5029853;28;20042;-76
2021/08/27 06:15:36;;;;;;;7.65;2.92;;;;;;;32.84;30.03;100692.91;5029479;28;20072;-78
2021/08/27 06:18:04;;;;;;;9.18;2.88;;;;;;;33.10;30.69;100693.56;5029558;28;20049;-77
2021/08/27 06:20:32;;;;;;;10.65;2.88;;;;;;;33.41;30.04;100696.66;5029101;28;20045;-75
2021/08/27 06:23:00;;;;;;;8.60;3.00;;;;;;;33.61;29.86;100696.75;5030152;28;20040;-76
2021/08/27 06:25:35;;;;;;;5.97;2.47;;;;;;;33.77;29.98;100690.91;5026413;28;20052;-76
2021/08/27 06:28:03;;;;;;;5.47;2.70;;;;;;;33.90;29.95;100699.88;5036966;28;20037;-76
2021/08/27 06:30:31;;;;;;;8.20;2.80;;;;;;;34.00;29.43;100692.59;5045724;28;20503;-77
2021/08/27 06:33:02;;;;;;;8.10;2.97;;;;;;;34.08;29.38;100689.22;5047628;28;20043;-76
2021/08/27 06:35:31;;;;;;;11.20;3.40;;;;;;;34.14;29.46;100696.06;5049771;28;20051;-76
2021/08/27 06:40:44;;;;;;;13.57;3.30;;;;;;;34.45;29.34;100705.38;5051609;28;20041;-76
2021/08/27 06:43:15;;;;;;;8.45;2.75;;;;;;;34.61;28.94;100694.81;5051253;28;20045;-76
2021/08/27 06:45:44;;;;;;;9.05;2.83;;;;;;;34.67;28.82;100700.63;5053184;28;20041;-76
2021/08/27 06:48:13;;;;;;;9.23;3.40;;;;;;;34.82;28.65;100700.34;5053241;28;20499;-76
2021/08/27 06:50:41;;;;;;;7.10;2.90;;;;;;;34.98;28.12;100692.53;5053584;28;20037;-76
2021/08/27 06:53:08;;;;;;;7.18;2.85;;;;;;;35.05;27.96;100697.31;5053517;28;20048;-76
2021/08/27 06:55:38;;;;;;;7.15;3.03;;;;;;;35.12;27.76;100694.91;5053013;28;20048;-75
2021/08/27 06:58:07;;;;;;;7.40;3.30;;;;;;;35.29;27.62;100698.97;5045341;28;20054;-76
2021/08/27 07:00:36;;;;;;;10.32;3.20;;;;;;;35.49;27.16;100690.69;5030385;28;20045;-78
2021/08/27 07:03:04;;;;;;;7.05;3.15;;;;;;;35.61;27.10;100696.94;5030969;28;20037;-78
2021/08/27 07:05:33;;;;;;;6.93;2.58;;;;;;;35.68;25.95;100702.75;5032029;28;20045;-78
2021/08/27 07:08:00;;;;;;;6.30;3.10;;;;;;;35.72;25.97;100693.25;5033043;28;20045;-78
2021/08/27 07:10:29;;;;;;;11.93;3.40;;;;;;;35.88;26.25;100693.59;5032958;28;20049;-77
2021/08/27 07:12:59;;;;;;;8.68;3.20;;;;;;;35.94;25.77;100699.41;5033083;28;20037;-76
2021/08/27 07:15:27;;;;;;;5.80;2.72;;;;;;;36.02;26.38;100704.22;5033519;28;20045;-76
2021/08/27 07:17:55;;;;;;;9.82;3.10;;;;;;;35.90;25.87;100699.84;5032708;28;20037;-76
2021/08/27 07:20:24;;;;;;;12.88;3.05;;;;;;;36.00;25.84;100697.09;5033280;28;20498;-77
2021/08/27 07:22:53;;;;;;;7.20;2.75;;;;;;;36.08;25.41;100695.38;5032613;28;20044;-77
2021/08/27 07:25:21;;;;;;;11.13;3.38;;;;;;;36.16;24.96;100709.31;5033434;28;20033;-78
2021/08/27 07:27:49;;;;;;;8.70;3.58;;;;;;;36.22;24.14;100703.28;5033383;28;20041;-77
2021/08/27 07:30:18;;;;;;;9.30;3.63;;;;;;;36.29;24.12;100700.81;5033265;28;20053;-78
2021/08/27 07:32:45;;;;;;;12.40;3.25;;;;;;;36.42;24.33;100709.66;5032957;28;20506;-76
2021/08/27 07:35:14;;;;;;;15.95;3.83;;;;;;;36.67;24.22;100708.25;5029354;28;20049;-76
2021/08/27 07:37:43;;;;;;;5.93;2.88;;;;;;;36.90;23.45;100709.66;5023826;28;20037;-76
2021/08/27 07:40:14;;;;;;;12.30;3.80;;;;;;;37.07;22.38;100711.69;5015321;28;20136;-76
2021/08/27 07:42:42;;;;;;;74.18;13.43;;;;;;;37.27;21.96;100722.69;5032877;28;20049;-76
2021/08/27 07:45:11;;;;;;;87.32;14.88;;;;;;;37.52;21.33;100719.25;5031771;28;20041;-76
2021/08/27 07:47:40;;;;;;;123.18;21.15;;;;;;;37.79;20.83;100715.69;5032352;28;20136;-77
2021/08/27 07:50:10;;;;;;;59.78;11.30;;;;;;;37.94;20.38;100716.06;5032561;28;20060;-77
2021/08/27 07:52:39;;;;;;;146.63;24.95;;;;;;;38.06;20.72;100715.72;5032088;28;20054;-77
2021/08/27 07:55:07;;;;;;;47.88;9.18;;;;;;;38.17;19.86;100709.13;5032144;28;20033;-77
2021/08/27 07:57:40;;;;;;;19.25;4.57;;;;;;;38.27;20.16;100702.50;5032505;28;20503;-77
2021/08/27 08:00:10;;;;;;;18.45;4.75;;;;;;;38.36;20.26;100706.22;5031422;28;20099;-77
2021/08/27 08:02:37;;;;;;;41.30;8.25;;;;;;;38.51;20.14;100706.59;5034581;28;20571;-77
2021/08/27 08:05:06;;;;;;;9.23;3.15;;;;;;;38.48;19.86;100713.28;5031975;28;20044;-77
2021/08/27 08:07:34;;;;;;;44.85;7.70;;;;;;;38.32;20.16;100717.75;5032574;28;20053;-77
2021/08/27 08:10:01;;;;;;;18.95;4.00;;;;;;;38.36;20.75;100716.38;5032185;28;20045;-76
2021/08/27 08:12:29;;;;;;;46.13;7.57;;;;;;;38.41;20.86;100725.06;5028358;28;20049;-77
2021/08/27 08:14:59;;;;;;;31.00;5.82;;;;;;;38.54;21.05;100725.56;5032255;28;20446;-76
2021/08/27 08:17:26;;;;;;;36.70;6.18;;;;;;;38.66;20.46;100719.66;5032631;28;20048;-77
2021/08/27 08:19:53;;;;;;;8.68;4.47;;;;;;;38.77;20.56;100717.69;5031314;28;20454;-75
2021/08/27 08:22:22;;;;;;;18.70;4.28;;;;;;;38.87;20.38;100722.09;5031751;28;20411;-76
2021/08/27 08:24:49;;;;;;;9.40;3.55;;;;;;;38.95;20.04;100721.31;5031855;28;20056;-75
2021/08/27 08:27:17;;;;;;;6.68;3.35;;;;;;;38.89;19.86;100724.69;5029803;28;20042;-76
2021/08/27 08:29:44;;;;;;;6.22;3.20;;;;;;;38.92;19.73;100727.19;5015733;28;20068;-76
2021/08/27 08:32:13;;;;;;;5.35;3.20;;;;;;;38.94;19.49;100727.88;5031660;28;20444;-77
2021/08/27 08:34:41;;;;;;;11.93;3.90;;;;;;;38.77;19.31;100726.84;5031248;28;20064;-76
2021/08/27 08:37:08;;;;;;;10.23;3.60;;;;;;;38.72;19.43;100725.59;5026473;28;20410;-76
2021/08/27 08:39:37;;;;;;;11.18;3.30;;;;;;;38.72;19.85;100728.34;5031483;28;20037;-75
2021/08/27 08:42:06;;;;;;;9.80;4.03;;;;;;;38.92;19.80;100729.94;5007609;28;20033;-77
2021/08/27 08:44:34;;;;;;;8.63;3.55;;;;;;;39.10;19.54;100728.03;5014559;28;20041;-76
2021/08/27 08:47:03;;;;;;;7.35;3.30;;;;;;;39.01;19.42;100718.78;5030106;28;20562;-76
2021/08/27 08:49:34;;;;;;;9.65;3.60;;;;;;;39.11;19.56;100723.38;5028802;28;20041;-76
2021/08/27 08:52:02;;;;;;;7.93;3.88;;;;;;;39.20;19.41;100727.91;5031443;28;20049;-77
2021/08/27 08:54:31;;;;;;;7.50;3.70;;;;;;;39.22;19.19;100726.72;5030872;28;20048;-76
2021/08/27 08:56:59;;;;;;;9.68;3.80;;;;;;;39.26;19.65;100727.25;5027425;28;20507;-76
2021/08/27 08:59:29;;;;;;;7.82;3.65;;;;;;;39.35;19.77;100713.34;5031192;28;20077;-77
2021/08/27 09:01:57;;;;;;;7.95;3.25;;;;;;;39.40;19.63;100713.75;5030854;28;20049;-77
2021/08/27 09:04:27;;;;;;;7.20;3.70;;;;;;;39.30;19.18;100723.16;5030559;28;20434;-76
2021/08/27 09:06:56;;;;;;;7.38;3.47;;;;;;;39.35;19.17;100718.00;5030103;28;20108;-76
2021/08/27 09:09:31;;;;;;;8.32;3.97;;;;;;;39.50;19.23;100707.25;5030359;28;20029;-77
2021/08/27 09:12:01;;;;;;;7.65;3.58;;;;;;;39.65;19.20;100719.44;5029699;28;20046;-76
2021/08/27 09:14:30;;;;;;;7.65;3.30;;;;;;;39.73;19.18;100725.84;5030280;28;20531;-75
2021/08/27 09:17:05;;;;;;;8.68;4.20;;;;;;;39.56;19.03;100714.88;5037836;28;20116;-75
2021/08/27 09:19:51;;;;;;;9.55;3.40;;;;;;;39.16;18.89;100723.75;5047157;28;20041;-76
2021/08/27 09:22:21;;;;;;;10.07;4.10;;;;;;;39.23;19.15;100716.53;5049442;28;20045;-75
2021/08/27 09:25:06;;;;;;;6.88;3.38;;;;;;;39.42;19.39;100708.06;5040607;28;20041;-73
2021/08/27 09:27:35;;;;;;;6.10;3.13;;;;;;;39.40;19.03;100705.44;5048193;28;20410;-76
2021/08/27 09:30:11;;;;;;;7.95;3.35;;;;;;;39.31;19.36;100702.78;5048928;28;20029;-76
2021/08/27 09:32:38;;;;;;;7.05;3.45;;;;;;;39.37;19.11;100699.41;5050117;28;20536;-77
2021/08/27 09:35:09;;;;;;;11.57;3.42;;;;;;;39.23;19.02;100699.97;5048875;28;20040;-76
2021/08/27 09:37:54;;;;;;;5.78;3.45;;;;;;;39.07;19.38;100706.22;5049774;28;20060;-75
2021/08/27 09:40:27;;;;;;;8.00;3.25;;;;;;;39.17;19.25;100697.84;5046257;28;20049;-75
2021/08/27 09:42:56;;;;;;;8.82;3.47;;;;;;;39.11;20.09;100702.13;5046323;28;20033;-75
2021/08/27 09:45:35;;;;;;;8.70;3.53;;;;;;;39.10;20.52;100700.38;5048843;28;20045;-76
2021/08/27 09:48:03;;;;;;;5.85;3.38;;;;;;;38.90;20.89;100688.66;5044727;28;20049;-76
2021/08/27 09:50:32;;;;;;;8.30;3.95;;;;;;;38.80;21.08;100690.63;5041469;28;20109;-75
2021/08/27 09:53:04;;;;;;;6.53;3.40;;;;;;;38.85;21.09;100688.25;5029842;28;20046;-76
2021/08/27 09:55:33;;;;;;;10.68;3.45;;;;;;;38.65;21.24;100678.44;5029549;28;20048;-75
2021/08/27 09:58:03;;;;;;;6.95;3.72;;;;;;;38.55;21.55;100689.53;5028735;28;20061;-76
2021/08/27 10:00:35;;;;;;;12.50;3.92;;;;;;;38.51;21.70;100690.03;5029650;28;20042;-75
2021/08/27 10:03:17;;;;;;;12.15;4.50;;;;;;;38.45;21.76;100693.38;5029422;28;20034;-75
2021/08/27 10:05:45;;;;;;;9.05;3.28;;;;;;;38.09;22.54;100687.81;5025911;28;20076;-75
2021/08/27 10:08:20;;;;;;;8.13;3.65;;;;;;;37.96;23.07;100689.19;5030033;28;20517;-76
2021/08/27 10:10:49;;;;;;;11.15;3.53;;;;;;;38.10;22.73;100696.97;5034334;28;20041;-76
2021/08/27 10:13:17;;;;;;;7.53;3.40;;;;;;;38.26;22.95;100687.00;5033004;28;20049;-76
2021/08/27 10:15:45;;;;;;;13.70;3.80;;;;;;;38.34;22.99;100691.72;5033393;28;20503;-76
2021/08/27 10:18:15;;;;;;;9.35;3.78;;;;;;;38.17;23.30;100700.84;5030148;28;20045;-76
2021/08/27 10:20:46;;;;;;;7.40;3.78;;;;;;;38.12;23.36;100694.94;5026289;28;20764;-76
2021/08/27 10:23:17;;;;;;;7.05;3.10;;;;;;;38.11;23.80;100704.22;5033730;28;20045;-76
2021/08/27 10:25:47;;;;;;;10.18;3.17;;;;;;;38.01;23.77;100700.66;5032452;28;20488;-76
2021/08/27 10:28:16;;;;;;;7.93;3.50;;;;;;;38.04;23.79;100703.09;5031973;28;20045;-75
2021/08/27 10:30:52;;;;;;;14.68;3.75;;;;;;;37.97;24.34;100702.81;5033240;28;20132;-75
2021/08/27 10:33:21;;;;;;;8.55;3.10;;;;;;;37.97;24.51;100701.97;5032651;28;20044;-75
2021/08/27 10:35:53;;;;;;;9.10;3.60;;;;;;;38.03;24.33;100693.09;5025650;28;20399;-75
2021/08/27 10:38:44;;;;;;;13.00;3.65;;;;;;;38.09;24.34;100703.50;5012370;28;20558;-74
2021/08/27 10:41:19;;;;;;;8.00;3.83;;;;;;;37.90;24.77;100702.56;5012760;28;20048;-75
2021/08/27 10:43:55;;;;;;;6.30;3.22;;;;;;;38.07;24.74;100689.03;5013466;28;20045;-75
2021/08/27 10:46:42;;;;;;;6.22;3.30;;;;;;;38.10;24.65;100697.84;5011719;28;20038;-75
2021/08/27 10:49:10;;;;;;;7.05;3.17;;;;;;;37.84;25.30;100705.06;5004474;28;20503;-75
2021/08/27 10:51:38;;;;;;;13.48;4.40;;;;;;;38.06;24.85;100709.34;5014340;28;20076;-76
2021/08/27 10:54:21;;;;;;;;;;;;;;;38.20;24.26;100704.16;5012930;28;20104;-73
2021/08/27 10:56:51;;;;;;;13.63;3.50;;;;;;;38.37;24.14;100707.97;5013417;28;20405;-75
2021/08/27 10:59:21;;;;;;;9.23;3.70;;;;;;;38.49;23.90;100709.50;5011814;28;20048;-74
2021/08/27 11:01:49;;;;;;;9.00;3.47;;;;;;;38.63;24.04;100719.13;5013493;28;20037;-75
2021/08/27 11:04:23;;;;;;;9.82;3.72;;;;;;;38.80;23.73;100723.75;5013174;28;20038;-75
2021/08/27 11:06:54;;;;;;;8.85;3.42;;;;;;;38.89;23.60;100714.53;5012085;28;20052;-73
2021/08/27 11:09:24;;;;;;;9.55;3.63;;;;;;;38.82;23.27;100709.78;5012372;28;20038;-73
2021/08/27 11:12:21;;;;;;;7.55;3.17;;;;;;;38.87;23.31;100716.56;5012914;28;20555;-73
2021/08/27 11:14:54;;;;;;;8.32;3.70;;;;;;;38.62;24.28;100720.13;4978630;28;20034;-74
2021/08/27 11:17:22;;;;;;;8.73;3.57;;;;;;;38.51;24.69;100712.97;5011603;28;20546;-72
2021/08/27 11:20:00;;;;;;;11.43;4.03;;;;;;;38.84;23.92;100716.03;5012231;28;20848;-74
2021/08/27 11:22:29;;;;;;;9.85;3.72;;;;;;;39.09;23.75;100718.00;5010734;28;20038;-74
2021/08/27 11:25:22;;;;;;;12.63;3.50;;;;;;;39.34;23.03;100706.06;5010520;28;20125;-74
2021/08/27 11:28:28;;;;;;;12.50;3.72;;;;;;;39.41;23.08;100706.31;5009455;28;20045;-74
2021/08/27 11:31:07;;;;;;;8.60;3.47;;;;;;;39.40;23.60;100716.50;4933088;29;20052;-74
2021/08/27 11:33:57;;;;;;;8.07;3.25;;;;;;;39.45;23.35;100718.81;4933713;29;20622;-75
2021/08/27 11:36:24;;;;;;;8.15;3.60;;;;;;;39.41;23.10;100712.72;4987828;28;20046;-74
2021/08/27 11:38:55;;;;;;;8.10;3.60;;;;;;;39.51;23.11;100711.75;5011704;28;20522;-72